Osnabrock, North Dakota
Current Conditions -  °F | °C
As of 9:55 PM on Thursday 27 Nov 2014 (Local Time) from KD55 Reporting Station
Overcast Overcast  
Wind Chill: -8°   Ceiling: 400
Heat Index:   Visibility: 10mi
Dew Point:   Wind: 10mph
Humidity: 79%   Direction: 160°SSE
Pressure: 30.05"   Gusts: NA
Location:  48.67°N, 98.15°W
Report Text: KD55 280355Z AUTO 16009KT 10SM BKN004 OVC080 M14/M17 A3005 RMK AO2
Loading
Personal Weather Stations






























Interactive Weather Map New forecast layout! Learn more

10-Day Weather Forecast

Advertisements
Track Severe Weather on mobile